sensor_id;sensor_type;location;lat;lon;timestamp;pressure;altitude;pressure_sealevel;temperature;humidity
84169;BME280;74295;50.146;8.794;2024-03-23T00:57:23;99847.16;;;7.61;87.94
84169;BME280;74295;50.146;8.794;2024-03-23T01:07:25;99821.88;;;7.78;88.03
84169;BME280;74295;50.146;8.794;2024-03-23T01:17:28;99813.66;;;7.85;87.59
84169;BME280;74295;50.146;8.794;2024-03-23T01:27:29;99791.94;;;8.08;86.32
84169;BME280;74295;50.146;8.794;2024-03-23T01:37:32;99781.50;;;8.12;86.71
84169;BME280;74295;50.146;8.794;2024-03-23T01:47:35;99764.88;;;8.20;86.47
84169;BME280;74295;50.146;8.794;2024-03-23T01:57:38;99742.50;;;8.36;86.81
84169;BME280;74295;50.146;8.794;2024-03-23T02:07:40;99739.78;;;8.19;87.57
84169;BME280;74295;50.146;8.794;2024-03-23T02:17:43;99722.72;;;8.30;87.23
84169;BME280;74295;50.146;8.794;2024-03-23T02:27:46;99700.47;;;8.23;87.61
84169;BME280;74295;50.146;8.794;2024-03-23T02:37:48;99693.94;;;7.91;88.01
84169;BME280;74295;50.146;8.794;2024-03-23T02:47:51;99674.41;;;7.84;89.33
84169;BME280;74295;50.146;8.794;2024-03-23T02:57:53;99668.34;;;7.77;89.95
84169;BME280;74295;50.146;8.794;2024-03-23T03:07:56;99658.38;;;7.94;89.07
84169;BME280;74295;50.146;8.794;2024-03-23T03:17:58;99651.03;;;8.06;88.01
84169;BME280;74295;50.146;8.794;2024-03-23T03:28:01;99655.34;;;8.07;88.75
84169;BME280;74295;50.146;8.794;2024-03-23T03:38:04;99636.84;;;8.16;88.20
84169;BME280;74295;50.146;8.794;2024-03-23T03:48:07;99631.97;;;8.29;88.25
84169;BME280;74295;50.146;8.794;2024-03-23T03:58:09;99628.84;;;8.37;88.26
84169;BME280;74295;50.146;8.794;2024-03-23T04:08:12;99632.25;;;8.49;87.85
84169;BME280;74295;50.146;8.794;2024-03-23T04:18:14;99635.50;;;8.51;87.31
84169;BME280;74295;50.146;8.794;2024-03-23T04:28:17;99655.13;;;8.63;87.57
84169;BME280;74295;50.146;8.794;2024-03-23T04:38:19;99674.75;;;8.97;86.27
84169;BME280;74295;50.146;8.794;2024-03-23T04:48:22;99664.47;;;8.56;88.00
84169;BME280;74295;50.146;8.794;2024-03-23T04:58:25;99673.91;;;8.37;89.05
84169;BME280;74295;50.146;8.794;2024-03-23T05:08:28;99707.63;;;8.18;84.84
84169;BME280;74295;50.146;8.794;2024-03-23T05:18:30;99715.28;;;7.76;83.91
84169;BME280;74295;50.146;8.794;2024-03-23T05:28:33;99760.00;;;7.72;82.75
84169;BME280;74295;50.146;8.794;2024-03-23T05:38:35;99785.81;;;7.68;82.21
84169;BME280;74295;50.146;8.794;2024-03-23T05:48:38;99828.91;;;7.79;81.94
84169;BME280;74295;50.146;8.794;2024-03-23T05:58:40;99858.88;;;7.78;82.44
84169;BME280;74295;50.146;8.794;2024-03-23T06:08:43;99865.88;;;7.79;80.76
84169;BME280;74295;50.146;8.794;2024-03-23T06:18:44;99886.78;;;7.72;78.54
84169;BME280;74295;50.146;8.794;2024-03-23T06:28:47;99884.34;;;7.59;79.03
84169;BME280;74295;50.146;8.794;2024-03-23T06:38:49;99910.44;;;7.81;77.97
84169;BME280;74295;50.146;8.794;2024-03-23T06:48:53;99965.97;;;7.66;76.97
84169;BME280;74295;50.146;8.794;2024-03-23T06:58:54;99990.00;;;7.56;76.55
84169;BME280;74295;50.146;8.794;2024-03-23T07:08:57;100022.63;;;7.66;75.77
84169;BME280;74295;50.146;8.794;2024-03-23T07:18:59;100031.53;;;7.78;72.59
84169;BME280;74295;50.146;8.794;2024-03-23T07:29:02;100060.38;;;7.77;71.25
84169;BME280;74295;50.146;8.794;2024-03-23T07:39:04;100081.59;;;7.85;68.84
84169;BME280;74295;50.146;8.794;2024-03-23T07:49:07;100092.53;;;8.02;68.09
84169;BME280;74295;50.146;8.794;2024-03-23T07:59:08;100095.53;;;8.63;66.63
84169;BME280;74295;50.146;8.794;2024-03-23T08:09:12;100120.72;;;8.29;66.77
84169;BME280;74295;50.146;8.794;2024-03-23T08:19:14;100132.53;;;8.51;66.10
84169;BME280;74295;50.146;8.794;2024-03-23T08:29:17;100158.72;;;8.16;67.14
84169;BME280;74295;50.146;8.794;2024-03-23T08:39:19;100166.84;;;8.51;67.26
84169;BME280;74295;50.146;8.794;2024-03-23T08:49:22;100169.31;;;9.03;64.96
84169;BME280;74295;50.146;8.794;2024-03-23T08:59:24;100189.19;;;8.97;65.54
84169;BME280;74295;50.146;8.794;2024-03-23T09:09:27;100181.09;;;9.25;63.84
84169;BME280;74295;50.146;8.794;2024-03-23T09:19:28;100190.78;;;10.27;65.38
84169;BME280;74295;50.146;8.794;2024-03-23T09:29:32;100193.97;;;10.41;60.02
84169;BME280;74295;50.146;8.794;2024-03-23T09:39:33;100196.28;;;9.71;60.90
84169;BME280;74295;50.146;8.794;2024-03-23T09:49:38;100175.09;;;10.29;56.90
84169;BME280;74295;50.146;8.794;2024-03-23T09:59:40;100207.31;;;10.64;52.93
84169;BME280;74295;50.146;8.794;2024-03-23T10:09:45;100210.16;;;10.36;53.70
84169;BME280;74295;50.146;8.794;2024-03-23T10:19:49;100199.78;;;10.87;53.34
84169;BME280;74295;50.146;8.794;2024-03-23T10:29:56;100174.78;;;11.76;48.47
84169;BME280;74295;50.146;8.794;2024-03-23T10:40:10;100150.28;;;12.03;47.54
84169;BME280;74295;50.146;8.794;2024-03-23T10:50:14;100145.03;;;12.69;45.80
84169;BME280;74295;50.146;8.794;2024-03-23T11:00:16;100173.53;;;12.67;48.79
84169;BME280;74295;50.146;8.794;2024-03-23T11:10:26;100207.00;;;10.60;54.92
84169;BME280;74295;50.146;8.794;2024-03-23T11:20:32;100246.03;;;7.99;73.74
84169;BME280;74295;50.146;8.794;2024-03-23T11:30:36;100208.41;;;8.50;73.74
84169;BME280;74295;50.146;8.794;2024-03-23T11:40:39;100202.84;;;9.30;69.11
84169;BME280;74295;50.146;8.794;2024-03-23T11:50:44;100200.47;;;9.62;65.63
84169;BME280;74295;50.146;8.794;2024-03-23T12:00:50;100178.25;;;9.60;64.16
84169;BME280;74295;50.146;8.794;2024-03-23T12:11:04;100163.47;;;8.95;65.35
84169;BME280;74295;50.146;8.794;2024-03-23T12:21:06;100119.34;;;9.06;64.76
84169;BME280;74295;50.146;8.794;2024-03-23T12:31:10;100110.25;;;9.56;62.92
84169;BME280;74295;50.146;8.794;2024-03-23T12:41:12;100107.34;;;10.29;59.47
84169;BME280;74295;50.146;8.794;2024-03-23T12:51:15;100098.13;;;11.16;54.31
84169;BME280;74295;50.146;8.794;2024-03-23T13:01:17;100078.09;;;11.75;50.19
84169;BME280;74295;50.146;8.794;2024-03-23T13:11:21;100071.25;;;11.68;49.80
84169;BME280;74295;50.146;8.794;2024-03-23T13:21:22;100075.63;;;11.16;50.18
84169;BME280;74295;50.146;8.794;2024-03-23T13:31:25;100193.97;;;8.56;66.93
84169;BME280;74295;50.146;8.794;2024-03-23T13:41:27;100227.38;;;7.08;76.56
84169;BME280;74295;50.146;8.794;2024-03-23T13:51:30;100224.06;;;7.24;80.89
84169;BME280;74295;50.146;8.794;2024-03-23T14:01:32;100186.09;;;8.54;76.09
84169;BME280;74295;50.146;8.794;2024-03-23T14:11:35;100163.56;;;9.56;70.70
84169;BME280;74295;50.146;8.794;2024-03-23T14:21:38;100176.41;;;9.21;67.17
84169;BME280;74295;50.146;8.794;2024-03-23T14:31:41;100164.78;;;9.48;68.79
84169;BME280;74295;50.146;8.794;2024-03-23T14:41:42;100141.44;;;9.92;66.25
84169;BME280;74295;50.146;8.794;2024-03-23T14:51:47;100139.53;;;9.92;66.61
84169;BME280;74295;50.146;8.794;2024-03-23T15:01:49;100131.97;;;10.06;62.93
84169;BME280;74295;50.146;8.794;2024-03-23T15:11:52;100114.44;;;10.30;63.61
84169;BME280;74295;50.146;8.794;2024-03-23T15:21:55;100117.94;;;10.69;59.89
84169;BME280;74295;50.146;8.794;2024-03-23T15:31:58;100092.59;;;10.80;56.88
84169;BME280;74295;50.146;8.794;2024-03-23T15:42:00;100063.28;;;9.79;60.88
84169;BME280;74295;50.146;8.794;2024-03-23T15:52:03;100071.34;;;9.13;65.23
84169;BME280;74295;50.146;8.794;2024-03-23T16:02:05;100140.88;;;6.80;77.92
84169;BME280;74295;50.146;8.794;2024-03-23T16:12:08;100094.13;;;7.04;78.28
84169;BME280;74295;50.146;8.794;2024-03-23T16:22:10;100060.00;;;6.98;79.73
84169;BME280;74295;50.146;8.794;2024-03-23T16:32:13;100054.22;;;7.24;78.12
84169;BME280;74295;50.146;8.794;2024-03-23T16:42:15;100067.91;;;6.82;77.96
84169;BME280;74295;50.146;8.794;2024-03-23T16:52:18;100084.75;;;6.48;79.61
84169;BME280;74295;50.146;8.794;2024-03-23T17:02:20;100088.63;;;6.81;79.85
84169;BME280;74295;50.146;8.794;2024-03-23T17:12:23;100099.06;;;6.78;78.16
84169;BME280;74295;50.146;8.794;2024-03-23T17:22:24;100090.47;;;6.51;79.02
84169;BME280;74295;50.146;8.794;2024-03-23T17:32:28;100082.63;;;5.96;83.03
84169;BME280;74295;50.146;8.794;2024-03-23T17:42:30;100090.50;;;6.15;86.30
84169;BME280;74295;50.146;8.794;2024-03-23T17:52:34;100070.63;;;6.16;85.84
84169;BME280;74295;50.146;8.794;2024-03-23T18:02:36;100135.81;;;5.69;81.40
84169;BME280;74295;50.146;8.794;2024-03-23T18:12:39;100061.19;;;4.84;86.04
84169;BME280;74295;50.146;8.794;2024-03-23T18:22:41;100115.13;;;5.14;87.42
84169;BME280;74295;50.146;8.794;2024-03-23T18:32:45;100108.97;;;5.07;86.69
84169;BME280;74295;50.146;8.794;2024-03-23T18:42:47;100119.25;;;4.79;87.65
84169;BME280;74295;50.146;8.794;2024-03-23T18:52:50;100128.56;;;4.76;87.65
84169;BME280;74295;50.146;8.794;2024-03-23T19:02:51;100123.97;;;4.83;86.62
84169;BME280;74295;50.146;8.794;2024-03-23T19:12:54;100117.69;;;4.96;82.82
84169;BME280;74295;50.146;8.794;2024-03-23T19:22:56;100131.19;;;5.20;83.23
84169;BME280;74295;50.146;8.794;2024-03-23T19:32:59;100115.59;;;5.04;82.65
84169;BME280;74295;50.146;8.794;2024-03-23T19:43:02;100116.13;;;4.88;82.41
84169;BME280;74295;50.146;8.794;2024-03-23T19:53:05;100103.38;;;4.71;82.83
84169;BME280;74295;50.146;8.794;2024-03-23T20:03:08;100124.19;;;4.82;83.63
84169;BME280;74295;50.146;8.794;2024-03-23T20:13:11;100091.31;;;4.93;84.27
84169;BME280;74295;50.146;8.794;2024-03-23T20:23:12;100091.38;;;4.80;84.98
84169;BME280;74295;50.146;8.794;2024-03-23T20:33:15;100092.50;;;4.59;85.67
84169;BME280;74295;50.146;8.794;2024-03-23T20:43:17;100089.50;;;4.36;87.03
84169;BME280;74295;50.146;8.794;2024-03-23T20:53:20;100100.47;;;4.22;87.38
84169;BME280;74295;50.146;8.794;2024-03-23T21:03:23;100091.44;;;4.03;88.68
84169;BME280;74295;50.146;8.794;2024-03-23T21:13:26;100109.19;;;4.17;88.67
84169;BME280;74295;50.146;8.794;2024-03-23T21:23:29;100100.16;;;4.56;86.58
84169;BME280;74295;50.146;8.794;2024-03-23T21:33:34;100104.03;;;4.66;86.02
84169;BME280;74295;50.146;8.794;2024-03-23T21:43:36;100093.84;;;4.75;85.84
84169;BME280;74295;50.146;8.794;2024-03-23T21:53:43;100099.16;;;4.88;84.95
84169;BME280;74295;50.146;8.794;2024-03-23T22:03:45;100089.19;;;5.01;84.18
84169;BME280;74295;50.146;8.794;2024-03-23T22:13:48;100074.34;;;4.92;85.11
84169;BME280;74295;50.146;8.794;2024-03-23T22:23:50;100067.69;;;5.01;85.16
84169;BME280;74295;50.146;8.794;2024-03-23T22:33:53;100059.41;;;5.03;84.33
84169;BME280;74295;50.146;8.794;2024-03-23T22:43:54;100041.59;;;4.77;85.27
84169;BME280;74295;50.146;8.794;2024-03-23T22:53:57;100040.16;;;4.75;85.80
84169;BME280;74295;50.146;8.794;2024-03-23T23:03:59;100019.72;;;4.74;85.48
84169;BME280;74295;50.146;8.794;2024-03-23T23:14:02;100023.03;;;5.07;83.96
84169;BME280;74295;50.146;8.794;2024-03-23T23:24:04;99996.63;;;5.22;83.62
84169;BME280;74295;50.146;8.794;2024-03-23T23:34:07;99978.22;;;5.25;83.45
84169;BME280;74295;50.146;8.794;2024-03-23T23:44:09;99983.75;;;5.30;82.94
84169;BME280;74295;50.146;8.794;2024-03-23T23:54:12;99967.78;;;5.36;82.84
